Time;durP1;ratioP1;P1;durP2;ratioP2;P2;SDS_P1;SDS_P2;PMS_P1;PMS_P2;Temp;Humidity;BMP_temperature;BMP_pressure;BME280_temperature;BME280_humidity;BME280_pressure;Samples;Min_cycle;Max_cycle;Signal;HPM_P1;HPM_P2
2022/03/02 00:00:28;;;;;;;7.95;3.50;;;6.90;90.10;;;;;;1928855;74;21133;-50
2022/03/02 00:02:58;;;;;;;4.95;3.95;;;6.80;90.10;;;;;;1928996;74;21072;-49
2022/03/02 00:05:27;;;;;;;7.05;3.65;;;6.80;90.10;;;;;;1928892;73;21075;-49
2022/03/02 00:07:57;;;;;;;4.97;3.92;;;6.80;90.20;;;;;;1928907;73;21025;-50
2022/03/02 00:10:26;;;;;;;7.90;3.75;;;6.80;90.40;;;;;;1928926;73;21098;-51
2022/03/02 00:13:07;;;;;;;5.83;4.10;;;6.80;90.40;;;;;;1928775;73;21000;-49
2022/03/02 00:15:36;;;;;;;6.72;3.60;;;6.80;90.40;;;;;;1928746;74;21040;-48
2022/03/02 00:18:06;;;;;;;6.95;3.22;;;6.90;90.50;;;;;;1928871;73;21056;-48
2022/03/02 00:20:35;;;;;;;9.95;4.45;;;6.90;90.40;;;;;;1928837;74;21020;-49
2022/03/02 00:23:05;;;;;;;7.90;3.72;;;7.00;90.50;;;;;;1928854;73;21158;-49
2022/03/02 00:25:35;;;;;;;8.35;3.50;;;7.00;90.50;;;;;;1928812;73;21021;-50
2022/03/02 00:28:04;;;;;;;5.78;3.45;;;7.00;90.50;;;;;;1928741;73;21012;-49
2022/03/02 00:30:34;;;;;;;4.25;3.60;;;7.00;90.60;;;;;;1928923;74;21024;-49
2022/03/02 00:33:03;;;;;;;7.30;3.30;;;7.00;90.60;;;;;;1928738;73;21017;-49
2022/03/02 00:35:34;;;;;;;9.40;4.10;;;7.00;90.60;;;;;;1928804;73;21080;-49
2022/03/02 00:38:04;;;;;;;7.75;4.12;;;7.10;90.60;;;;;;1928854;73;21036;-49
2022/03/02 00:40:33;;;;;;;5.40;3.65;;;7.00;90.70;;;;;;1928771;73;21142;-52
2022/03/02 00:43:03;;;;;;;7.67;4.17;;;7.00;90.70;;;;;;1928799;74;21021;-49
2022/03/02 00:45:32;;;;;;;6.97;3.55;;;7.00;90.70;;;;;;1928850;73;21150;-50
2022/03/02 00:48:03;;;;;;;4.67;3.30;;;7.00;90.70;;;;;;1928782;73;21083;-49
2022/03/02 00:50:34;;;;;;;5.60;3.47;;;6.90;90.00;;;;;;1928814;73;21094;-49
2022/03/02 00:53:05;;;;;;;4.72;3.45;;;6.80;90.30;;;;;;1928831;74;21017;-49
2022/03/02 00:55:35;;;;;;;6.83;3.87;;;6.70;90.30;;;;;;1928780;74;21519;-50
2022/03/02 00:58:06;;;;;;;5.58;3.60;;;6.60;90.40;;;;;;1928868;74;21021;-51
2022/03/02 01:00:36;;;;;;;7.45;4.25;;;6.50;90.30;;;;;;1928769;74;21025;-49
2022/03/02 01:03:05;;;;;;;6.12;3.72;;;6.40;90.20;;;;;;1928792;74;21029;-52
2022/03/02 01:05:35;;;;;;;8.65;4.00;;;6.30;90.20;;;;;;1928904;73;21037;-49
2022/03/02 01:08:05;;;;;;;5.67;4.28;;;6.10;90.40;;;;;;1928726;73;21157;-51
2022/03/02 01:10:35;;;;;;;4.95;4.17;;;6.10;90.90;;;;;;1928879;74;21001;-52
2022/03/02 01:13:04;;;;;;;6.70;3.83;;;6.10;90.90;;;;;;1928838;73;21086;-49
2022/03/02 01:15:45;;;;;;;4.72;3.47;;;6.10;90.80;;;;;;1928786;74;21092;-49
2022/03/02 01:18:27;;;;;;;5.28;3.50;;;6.10;90.70;;;;;;1928807;73;21110;-49
2022/03/02 01:20:59;;;;;;;7.15;4.15;;;6.10;90.90;;;;;;1928814;74;21053;-49
2022/03/02 01:23:28;;;;;;;9.23;4.22;;;6.10;91.00;;;;;;1928941;74;21064;-51
2022/03/02 01:25:58;;;;;;;4.70;3.80;;;6.10;91.00;;;;;;1928854;73;21021;-51
2022/03/02 01:28:27;;;;;;;7.67;3.80;;;6.20;91.00;;;;;;1928746;73;21024;-51
2022/03/02 01:30:56;;;;;;;8.25;4.37;;;6.30;91.10;;;;;;1928876;74;21196;-49
2022/03/02 01:33:26;;;;;;;5.58;3.60;;;6.30;91.00;;;;;;1928717;74;21028;-49
2022/03/02 01:35:55;;;;;;;10.98;5.12;;;6.30;90.90;;;;;;1928871;74;21084;-48
2022/03/02 01:38:25;;;;;;;7.08;4.00;;;6.40;91.00;;;;;;1928856;74;21029;-52
2022/03/02 01:40:54;;;;;;;6.25;4.62;;;6.40;90.90;;;;;;1928765;73;21001;-48
2022/03/02 01:43:27;;;;;;;5.35;4.50;;;6.50;91.00;;;;;;1928678;73;21167;-49
2022/03/02 01:45:54;;;;;;;11.35;4.40;;;6.50;91.00;;;;;;1928514;74;21181;-50
2022/03/02 01:48:23;;;;;;;5.78;3.75;;;6.50;91.00;;;;;;1928798;74;21040;-51
2022/03/02 01:50:53;;;;;;;11.95;4.08;;;6.50;91.00;;;;;;1919945;74;21030;-51
2022/03/02 01:53:22;;;;;;;6.78;4.72;;;6.60;91.00;;;;;;1893991;76;21527;-50
2022/03/02 01:55:51;;;;;;;7.08;4.42;;;6.60;91.10;;;;;;1893982;74;21152;-50
2022/03/02 01:58:21;;;;;;;6.20;3.72;;;6.60;91.00;;;;;;1893891;76;21085;-49
2022/03/02 02:00:51;;;;;;;7.10;4.30;;;6.60;91.10;;;;;;1893985;75;21313;-49
2022/03/02 02:03:20;;;;;;;6.92;4.08;;;6.60;91.10;;;;;;1894006;75;21077;-51
2022/03/02 02:05:49;;;;;;;8.70;4.87;;;6.60;91.10;;;;;;1893904;75;21010;-49
2022/03/02 02:08:19;;;;;;;8.03;4.55;;;6.50;91.10;;;;;;1893815;74;21046;-49
2022/03/02 02:10:50;;;;;;;5.80;4.15;;;6.60;91.10;;;;;;1893905;76;21073;-49
2022/03/02 02:13:19;;;;;;;10.15;4.42;;;6.50;91.30;;;;;;1894024;74;21058;-50
2022/03/02 02:15:48;;;;;;;9.13;3.92;;;6.60;91.10;;;;;;1894118;76;21139;-51
2022/03/02 02:18:18;;;;;;;10.28;4.67;;;6.50;91.10;;;;;;1894121;75;21076;-48
2022/03/02 02:20:53;;;;;;;9.00;3.80;;;6.50;91.00;;;;;;1893995;74;20990;-48
2022/03/02 02:23:23;;;;;;;9.85;4.25;;;6.40;91.10;;;;;;1894030;75;21170;-49
2022/03/02 02:25:52;;;;;;;6.58;4.45;;;6.40;90.90;;;;;;1894139;76;21049;-50
2022/03/02 02:28:24;;;;;;;6.55;4.62;;;6.40;90.80;;;;;;1894012;74;21034;-49
2022/03/02 02:30:56;;;;;;;8.43;4.65;;;6.30;90.80;;;;;;1894040;75;21452;-50
2022/03/02 02:33:26;;;;;;;8.53;4.70;;;6.20;91.00;;;;;;1893942;74;21089;-49
2022/03/02 02:35:56;;;;;;;7.90;4.83;;;6.20;91.20;;;;;;1894121;75;21104;-49
2022/03/02 02:38:25;;;;;;;10.78;4.67;;;6.30;91.30;;;;;;1894004;75;21140;-50
2022/03/02 02:40:55;;;;;;;6.97;4.97;;;6.30;91.30;;;;;;1894078;76;21038;-50
2022/03/02 02:43:25;;;;;;;7.90;4.40;;;6.30;91.30;;;;;;1893972;75;21159;-49
2022/03/02 02:45:55;;;;;;;12.40;4.30;;;6.40;91.30;;;;;;1894071;74;21082;-49
2022/03/02 02:48:25;;;;;;;6.15;5.05;;;6.30;91.20;;;;;;1893984;75;21084;-50
2022/03/02 02:50:54;;;;;;;6.67;4.17;;;6.30;91.30;;;;;;1894597;74;21083;-52
2022/03/02 02:53:23;;;;;;;6.75;4.33;;;6.40;91.30;;;;;;1928876;74;21140;-50
2022/03/02 02:55:54;;;;;;;6.92;4.58;;;6.40;91.30;;;;;;1928916;73;21106;-48
2022/03/02 02:58:25;;;;;;;10.43;4.58;;;6.40;91.30;;;;;;1928795;73;21043;-48
2022/03/02 03:00:56;;;;;;;7.85;4.55;;;6.30;89.90;;;;;;1927124;73;21135;-48
2022/03/02 03:03:25;;;;;;;7.03;4.53;;;6.10;90.30;;;;;;1928868;73;21146;-49
2022/03/02 03:05:55;;;;;;;11.28;5.55;;;6.00;90.70;;;;;;1928856;73;21009;-51
2022/03/02 03:08:25;;;;;;;9.00;5.00;;;5.90;90.90;;;;;;1928748;73;21025;-48
2022/03/02 03:10:54;;;;;;;9.78;4.35;;;5.80;91.10;;;;;;1928786;73;21079;-48
2022/03/02 03:13:24;;;;;;;11.05;5.97;;;5.80;91.20;;;;;;1928879;73;21094;-48
2022/03/02 03:15:54;;;;;;;9.23;5.87;;;5.80;91.30;;;;;;1928836;73;21098;-51
2022/03/02 03:18:23;;;;;;;9.48;5.67;;;5.90;91.30;;;;;;1928790;73;21078;-48
2022/03/02 03:20:53;;;;;;;7.72;4.75;;;5.80;90.70;;;;;;1928845;73;21087;-48
2022/03/02 03:23:22;;;;;;;11.93;5.92;;;5.70;90.20;;;;;;1928887;74;21106;-48
2022/03/02 03:25:52;;;;;;;10.38;5.97;;;5.60;90.80;;;;;;1928830;73;21106;-49
2022/03/02 03:28:21;;;;;;;11.83;6.22;;;5.50;91.10;;;;;;1928786;73;21138;-48
2022/03/02 03:30:51;;;;;;;15.98;6.72;;;5.50;91.30;;;;;;1928956;73;21153;-47
2022/03/02 03:33:21;;;;;;;14.40;7.67;;;5.60;91.40;;;;;;1928860;74;21279;-50
2022/03/02 03:35:50;;;;;;;10.20;7.15;;;5.70;91.00;;;;;;1928805;73;21074;-48
2022/03/02 03:38:20;;;;;;;14.15;7.37;;;5.70;91.30;;;;;;1928909;74;21016;-48
2022/03/02 03:40:49;;;;;;;12.65;7.83;;;5.70;91.40;;;;;;1928912;73;21024;-51
2022/03/02 03:43:18;;;;;;;14.45;7.80;;;5.70;91.40;;;;;;1928784;74;21012;-49
2022/03/02 03:45:49;;;;;;;15.05;7.70;;;5.80;91.40;;;;;;1928792;74;21120;-49
2022/03/02 03:48:18;;;;;;;9.43;6.17;;;5.80;91.40;;;;;;1928825;73;21160;-49
2022/03/02 03:50:48;;;;;;;7.67;5.97;;;5.80;91.10;;;;;;1928799;74;21076;-48
2022/03/02 03:53:18;;;;;;;9.23;6.55;;;5.80;91.20;;;;;;1903277;74;21163;-48
2022/03/02 03:55:47;;;;;;;10.23;6.60;;;5.80;91.30;;;;;;1894013;74;21019;-48
2022/03/02 03:58:16;;;;;;;9.50;7.58;;;5.80;91.40;;;;;;1893975;74;21484;-49
2022/03/02 04:00:46;;;;;;;23.18;7.30;;;5.80;91.40;;;;;;1893963;76;21026;-48
2022/03/02 04:03:15;;;;;;;9.90;6.65;;;5.80;91.40;;;;;;1893954;75;21088;-51
2022/03/02 04:05:45;;;;;;;9.80;5.87;;;5.80;90.70;;;;;;1894096;74;21113;-49
2022/03/02 04:08:14;;;;;;;11.65;7.10;;;5.70;91.10;;;;;;1893914;74;21065;-48
2022/03/02 04:10:45;;;;;;;12.28;6.30;;;5.70;91.30;;;;;;1894010;74;21030;-50
2022/03/02 04:13:14;;;;;;;9.30;5.55;;;5.70;91.40;;;;;;1893948;75;21042;-49
2022/03/02 04:15:43;;;;;;;9.55;6.35;;;5.70;91.50;;;;;;1893976;76;21152;-48
2022/03/02 04:18:13;;;;;;;10.23;6.83;;;5.80;91.50;;;;;;1893995;75;21022;-51
2022/03/02 04:20:42;;;;;;;9.63;6.20;;;5.80;91.50;;;;;;1893913;75;21156;-47
2022/03/02 04:23:12;;;;;;;9.50;6.03;;;5.80;91.50;;;;;;1893892;76;21057;-50
2022/03/02 04:25:41;;;;;;;11.55;7.00;;;5.90;91.60;;;;;;1893895;74;21065;-51
2022/03/02 04:28:11;;;;;;;10.60;6.20;;;5.90;91.60;;;;;;1893894;74;21026;-48
2022/03/02 04:30:40;;;;;;;12.55;7.85;;;6.00;91.60;;;;;;1894101;75;21107;-48
2022/03/02 04:33:10;;;;;;;13.18;7.47;;;6.00;91.50;;;;;;1894003;75;21034;-49
2022/03/02 04:35:39;;;;;;;12.40;7.55;;;6.10;91.50;;;;;;1894012;75;21018;-48
2022/03/02 04:38:10;;;;;;;10.28;7.72;;;6.10;91.50;;;;;;1893924;76;21087;-47
2022/03/02 04:40:39;;;;;;;11.55;8.28;;;6.10;91.50;;;;;;1894017;74;21021;-51
2022/03/02 04:43:09;;;;;;;9.65;6.67;;;6.10;91.50;;;;;;1894071;75;21100;-48
2022/03/02 04:45:38;;;;;;;14.87;6.78;;;6.10;91.40;;;;;;1893973;75;21075;-48
2022/03/02 04:48:08;;;;;;;8.90;6.35;;;6.10;91.10;;;;;;1894064;74;21034;-48
2022/03/02 04:50:38;;;;;;;11.33;7.17;;;6.10;91.30;;;;;;1894067;75;21076;-49
2022/03/02 04:53:07;;;;;;;11.97;6.33;;;6.00;91.40;;;;;;1907916;73;21053;-48
2022/03/02 04:55:37;;;;;;;7.12;5.70;;;6.00;91.50;;;;;;1928833;74;21070;-49
2022/03/02 04:58:06;;;;;;;11.80;7.12;;;6.10;91.50;;;;;;1928762;74;21021;-48
2022/03/02 05:00:37;;;;;;;10.43;6.45;;;6.20;91.60;;;;;;1928764;73;21016;-49
2022/03/02 05:03:07;;;;;;;8.65;6.22;;;6.20;91.60;;;;;;1928758;73;21483;-49
2022/03/02 05:05:38;;;;;;;9.88;6.17;;;6.30;91.60;;;;;;1928869;73;21033;-51
2022/03/02 05:08:08;;;;;;;12.75;7.42;;;6.30;91.60;;;;;;1928863;74;21082;-48
2022/03/02 05:10:38;;;;;;;11.33;7.30;;;6.40;91.60;;;;;;1928848;73;21142;-49
2022/03/02 05:13:07;;;;;;;10.25;6.30;;;6.50;91.60;;;;;;1928693;73;21082;-49
2022/03/02 05:15:37;;;;;;;9.95;6.45;;;6.50;91.60;;;;;;1928898;74;21017;-49
2022/03/02 05:18:06;;;;;;;12.15;6.37;;;6.60;91.60;;;;;;1928954;73;21021;-48
2022/03/02 05:20:35;;;;;;;13.75;8.50;;;6.70;91.60;;;;;;1928834;73;20997;-52
2022/03/02 05:23:04;;;;;;;10.80;7.03;;;6.70;91.60;;;;;;1928871;74;21083;-51
2022/03/02 05:25:34;;;;;;;11.55;7.83;;;6.80;91.50;;;;;;1928974;74;21015;-48
2022/03/02 05:28:03;;;;;;;11.85;7.05;;;6.80;91.50;;;;;;1928892;73;21029;-50
2022/03/02 05:30:33;;;;;;;15.75;9.35;;;6.80;91.50;;;;;;1928880;73;21088;-48
2022/03/02 05:33:02;;;;;;;16.60;9.65;;;6.90;91.50;;;;;;1928835;73;21068;-49
2022/03/02 05:35:32;;;;;;;11.33;6.28;;;6.90;91.60;;;;;;1928967;73;21076;-50
2022/03/02 05:38:01;;;;;;;9.10;5.55;;;7.00;91.50;;;;;;1928937;73;21078;-49
2022/03/02 05:40:30;;;;;;;11.10;6.12;;;7.10;91.60;;;;;;1928801;74;21001;-52
2022/03/02 05:43:00;;;;;;;10.30;6.92;;;7.20;91.60;;;;;;1928982;73;21106;-50
2022/03/02 05:45:29;;;;;;;9.78;5.83;;;7.30;91.70;;;;;;1928949;73;21021;-49
2022/03/02 05:47:59;;;;;;;7.75;4.75;;;7.30;91.60;;;;;;1928932;74;21036;-49
2022/03/02 05:50:28;;;;;;;9.68;5.35;;;7.40;91.40;;;;;;1928987;74;21016;-52
2022/03/02 05:52:58;;;;;;;8.63;5.67;;;7.40;91.30;;;;;;1928971;74;21028;-48
2022/03/02 05:55:27;;;;;;;11.05;6.25;;;7.40;91.20;;;;;;1929112;73;20997;-48
2022/03/02 05:57:56;;;;;;;9.63;6.78;;;7.40;91.30;;;;;;1929111;73;21025;-49
2022/03/02 06:00:25;;;;;;;9.08;6.25;;;7.50;91.30;;;;;;1929003;73;21133;-50
2022/03/02 06:02:55;;;;;;;8.45;6.17;;;7.50;91.20;;;;;;1928985;73;21087;-50
2022/03/02 06:05:24;;;;;;;10.68;5.35;;;7.50;91.00;;;;;;1929052;74;21041;-50
2022/03/02 06:07:54;;;;;;;12.40;8.73;;;7.60;91.10;;;;;;1929128;73;21478;-49
2022/03/02 06:10:24;;;;;;;9.23;5.97;;;7.60;91.10;;;;;;1929081;73;21033;-49
2022/03/02 06:12:53;;;;;;;9.13;5.97;;;7.60;91.10;;;;;;1929064;74;21020;-48
2022/03/02 06:15:23;;;;;;;12.30;5.35;;;7.70;91.10;;;;;;1929064;74;21154;-48
2022/03/02 06:17:52;;;;;;;7.30;4.87;;;7.70;90.30;;;;;;1928982;73;21060;-52
2022/03/02 06:20:22;;;;;;;7.50;4.47;;;7.80;90.70;;;;;;1929024;74;21020;-49
2022/03/02 06:22:51;;;;;;;4.58;3.75;;;7.80;90.70;;;;;;1929038;73;21021;-50
2022/03/02 06:25:21;;;;;;;7.05;4.03;;;7.80;90.10;;;;;;1928982;73;21020;-49
2022/03/02 06:27:50;;;;;;;7.20;4.08;;;7.90;90.30;;;;;;1928918;74;21087;-49
2022/03/02 06:30:20;;;;;;;6.33;3.15;;;7.90;90.00;;;;;;1929040;73;21025;-48
2022/03/02 06:32:49;;;;;;;6.62;3.65;;;7.90;89.50;;;;;;1928826;73;21083;-48
2022/03/02 06:35:18;;;;;;;6.47;4.08;;;7.90;90.00;;;;;;1929081;74;21044;-51
2022/03/02 06:37:48;;;;;;;8.63;4.55;;;7.90;89.50;;;;;;1928951;73;21024;-49
2022/03/02 06:40:17;;;;;;;7.47;4.95;;;7.90;89.10;;;;;;1928934;73;21495;-48
2022/03/02 06:43:10;;;;;;;9.80;5.40;;;7.90;89.90;;;;;;1928862;74;21017;-48
2022/03/02 06:45:54;;;;;;;9.80;4.70;;;7.90;89.00;;;;;;1927869;73;21024;-49
2022/03/02 06:48:45;;;;;;;10.68;6.00;;;7.90;89.60;;;;;;1928861;74;21017;-49
2022/03/02 06:51:17;;;;;;;8.93;4.97;;;8.00;89.60;;;;;;1928698;73;21037;-48
2022/03/02 06:53:46;;;;;;;7.40;5.62;;;8.00;89.80;;;;;;1928309;74;21787;-48
2022/03/02 06:56:18;;;;;;;9.25;5.10;;;8.00;90.00;;;;;;1928882;73;21013;-49
2022/03/02 06:58:56;;;;;;;7.05;3.70;;;8.10;90.00;;;;;;1928784;73;21012;-49
2022/03/02 07:01:30;;;;;;;7.60;4.78;;;8.10;88.60;;;;;;1928836;73;21028;-48
2022/03/02 07:04:01;;;;;;;9.58;4.78;;;8.20;89.70;;;;;;1928912;73;20993;-48
2022/03/02 07:06:31;;;;;;;6.22;3.47;;;8.20;88.30;;;;;;1928981;73;21024;-50
2022/03/02 07:09:01;;;;;;;7.40;4.28;;;8.30;87.50;;;;;;1928810;74;21021;-50
2022/03/02 07:11:33;;;;;;;5.33;3.55;;;8.30;85.70;;;;;;1928734;73;21042;-49
2022/03/02 07:14:03;;;;;;;8.70;3.77;;;8.30;87.20;;;;;;1928804;73;21072;-49
2022/03/02 07:16:33;;;;;;;8.13;4.22;;;8.40;85.50;;;;;;1928839;73;21040;-49
2022/03/02 07:19:02;;;;;;;6.45;4.53;;;8.40;86.10;;;;;;1928883;73;21025;-48
2022/03/02 07:21:33;;;;;;;6.45;4.30;;;8.40;85.80;;;;;;1928866;73;21185;-49
2022/03/02 07:24:14;;;;;;;5.53;2.60;;;8.40;86.60;;;;;;1928848;73;21556;-50
2022/03/02 07:26:45;;;;;;;5.65;2.83;;;8.50;82.00;;;;;;1928857;73;21095;-52
2022/03/02 07:29:16;;;;;;;4.67;2.65;;;8.50;83.60;;;;;;1928808;73;21036;-51
2022/03/02 07:31:46;;;;;;;6.20;3.47;;;8.60;83.20;;;;;;1928690;74;21020;-51
2022/03/02 07:34:16;;;;;;;4.53;3.05;;;8.60;83.70;;;;;;1928871;73;21024;-48
2022/03/02 07:36:46;;;;;;;3.98;2.70;;;8.70;81.30;;;;;;1928866;73;21000;-50
2022/03/02 07:39:15;;;;;;;5.42;2.75;;;8.70;78.20;;;;;;1928745;74;21075;-48
2022/03/02 07:41:44;;;;;;;5.97;3.35;;;8.70;80.40;;;;;;1928762;74;21447;-52
2022/03/02 07:44:14;;;;;;;19.57;10.82;;;8.80;81.30;;;;;;1928771;73;21443;-49
2022/03/02 07:46:45;;;;;;;4.85;3.25;;;8.80;80.70;;;;;;1928887;73;21020;-51
2022/03/02 07:49:14;;;;;;;4.95;3.00;;;8.80;79.70;;;;;;1928769;73;21001;-49
2022/03/02 07:51:44;;;;;;;7.55;2.83;;;8.90;80.90;;;;;;1928742;73;21078;-50
2022/03/02 07:54:16;;;;;;;4.62;3.25;;;8.90;79.80;;;;;;1928763;73;21124;-50
2022/03/02 07:56:47;;;;;;;3.72;2.85;;;8.90;81.70;;;;;;1928867;73;21041;-50
2022/03/02 07:59:17;;;;;;;6.05;3.17;;;9.00;80.60;;;;;;1928764;73;21012;-48
2022/03/02 08:01:47;;;;;;;7.72;3.20;;;9.00;79.50;;;;;;1928817;74;20993;-50
2022/03/02 08:04:17;;;;;;;5.47;3.30;;;9.00;78.20;;;;;;1928874;73;21033;-50
2022/03/02 08:06:47;;;;;;;2.90;2.40;;;9.00;77.50;;;;;;1927333;73;21090;-51
2022/03/02 08:09:17;;;;;;;2.85;2.65;;;9.00;77.10;;;;;;1928148;73;20989;-49
2022/03/02 08:11:47;;;;;;;5.75;3.00;;;9.10;78.50;;;;;;1927956;73;20997;-51
2022/03/02 08:14:23;;;;;;;4.47;2.72;;;9.10;79.20;;;;;;1927963;73;21032;-50
2022/03/02 08:16:51;;;;;;;2.67;1.77;;;9.10;77.90;;;;;;1927817;73;21127;-48
2022/03/02 08:19:22;;;;;;;2.60;2.20;;;9.10;74.30;;;;;;1928154;74;21094;-52
2022/03/02 08:21:58;;;;;;;4.55;3.02;;;9.00;74.90;;;;;;1927975;74;21126;-48
2022/03/02 08:24:28;;;;;;;2.22;2.02;;;9.00;77.00;;;;;;1928218;73;21149;-49
2022/03/02 08:27:00;;;;;;;3.02;2.72;;;9.00;74.60;;;;;;1928004;73;21064;-51
2022/03/02 08:29:32;;;;;;;4.33;3.35;;;9.00;75.20;;;;;;1927744;73;21095;-52
2022/03/02 08:32:04;;;;;;;7.72;3.87;;;9.00;75.30;;;;;;1928123;74;21149;-49
2022/03/02 08:34:35;;;;;;;7.60;2.65;;;9.00;76.70;;;;;;1928282;74;21040;-48
2022/03/02 08:37:05;;;;;;;3.40;2.95;;;9.00;75.80;;;;;;1927912;73;21130;-47
2022/03/02 08:39:34;;;;;;;5.78;2.72;;;9.10;76.00;;;;;;1928074;73;21079;-51
2022/03/02 08:42:04;;;;;;;3.62;3.12;;;9.10;74.30;;;;;;1928037;73;21021;-48
2022/03/02 08:44:34;;;;;;;5.90;2.95;;;9.10;75.00;;;;;;1928167;74;21021;-47
2022/03/02 08:47:03;;;;;;;5.72;2.98;;;9.10;75.10;;;;;;1928069;74;21048;-48
2022/03/02 08:49:33;;;;;;;6.10;3.22;;;9.20;74.40;;;;;;1928068;74;21096;-47
2022/03/02 08:52:03;;;;;;;6.47;2.80;;;9.20;73.40;;;;;;1927953;73;21063;-52
2022/03/02 08:54:41;;;;;;;2.98;2.05;;;9.20;73.10;;;;;;1928095;73;21051;-49
2022/03/02 08:57:11;;;;;;;4.50;2.40;;;9.30;73.80;;;;;;1928089;73;21147;-49
2022/03/02 08:59:41;;;;;;;2.50;2.17;;;9.30;73.10;;;;;;1928513;73;21095;-52
2022/03/02 09:02:11;;;;;;;3.98;2.27;;;9.30;72.20;;;;;;1928175;73;21011;-49
2022/03/02 09:04:42;;;;;;;1.87;1.40;;;9.30;73.30;;;;;;1928021;73;21081;-53
2022/03/02 09:07:11;;;;;;;3.67;2.40;;;9.30;69.10;;;;;;1928087;73;21051;-51
2022/03/02 09:09:41;;;;;;;2.98;1.62;;;9.30;72.60;;;;;;1928045;73;21071;-52
2022/03/02 09:12:10;;;;;;;5.17;2.47;;;9.40;72.80;;;;;;1927889;73;21136;-49
2022/03/02 09:14:40;;;;;;;6.67;2.45;;;9.40;72.80;;;;;;1928277;73;21133;-51
2022/03/02 09:17:09;;;;;;;5.22;2.62;;;9.30;71.70;;;;;;1927980;74;21125;-50
2022/03/02 09:19:39;;;;;;;3.58;2.70;;;9.30;72.60;;;;;;1928202;73;21079;-49
2022/03/02 09:22:08;;;;;;;3.30;2.00;;;9.40;74.00;;;;;;1928138;74;21529;-52
2022/03/02 09:24:38;;;;;;;3.98;2.87;;;9.30;72.80;;;;;;1928175;73;21078;-53
2022/03/02 09:27:09;;;;;;;8.10;3.17;;;9.30;72.80;;;;;;1928093;73;21031;-52
2022/03/02 09:29:42;;;;;;;8.60;3.20;;;9.30;73.80;;;;;;1928077;74;21019;-52
2022/03/02 09:32:12;;;;;;;5.35;2.67;;;9.30;73.70;;;;;;1928197;73;21035;-47
2022/03/02 09:34:45;;;;;;;4.78;3.12;;;9.30;74.60;;;;;;1927957;74;21023;-51
2022/03/02 09:37:16;;;;;;;5.28;2.80;;;9.30;73.90;;;;;;1928103;73;21040;-49
2022/03/02 09:39:46;;;;;;;5.45;3.12;;;9.30;71.50;;;;;;1928137;73;21005;-48
2022/03/02 09:42:23;;;;;;;3.25;2.55;;;9.20;72.70;;;;;;1928015;73;21095;-49
2022/03/02 09:44:55;;;;;;;3.72;2.35;;;9.20;72.10;;;;;;1927599;74;22054;-48
2022/03/02 09:47:27;;;;;;;30.37;5.03;;;9.20;71.90;;;;;;1927404;74;21473;-48
2022/03/02 09:49:58;;;;;;;4.72;3.02;;;9.20;73.20;;;;;;1926866;73;21015;-47
2022/03/02 09:52:30;;;;;;;12.23;4.45;;;9.20;73.80;;;;;;1927953;74;21027;-50
2022/03/02 09:54:59;;;;;;;4.95;3.25;;;9.20;74.70;;;;;;1928044;73;21099;-49
2022/03/02 09:57:30;;;;;;;4.03;2.52;;;9.20;73.10;;;;;;1906895;74;21049;-47
2022/03/02 10:00:00;;;;;;;3.90;2.45;;;9.30;73.50;;;;;;1905822;75;21450;-49
2022/03/02 10:02:42;;;;;;;4.75;2.30;;;9.40;72.80;;;;;;1905358;74;21016;-48
2022/03/02 10:05:16;;;;;;;2.47;1.95;;;9.40;72.20;;;;;;1905812;74;21012;-53
2022/03/02 10:08:06;;;;;;;3.80;2.87;;;9.40;70.90;;;;;;1905800;74;21060;-51
2022/03/02 10:10:41;;;;;;;6.17;2.05;;;9.40;72.00;;;;;;1905592;74;21530;-47
2022/03/02 10:13:16;;;;;;;6.05;2.87;;;9.40;71.60;;;;;;1905867;74;21017;-49
2022/03/02 10:15:46;;;;;;;3.83;2.57;;;9.40;72.70;;;;;;1905785;74;21171;-48
2022/03/02 10:18:17;;;;;;;4.28;2.40;;;9.50;72.20;;;;;;1905632;74;21137;-47
2022/03/02 10:20:49;;;;;;;6.12;2.40;;;9.60;73.30;;;;;;1905698;75;21033;-47
2022/03/02 10:23:37;;;;;;;3.90;2.40;;;9.70;71.70;;;;;;1905876;74;21506;-49
2022/03/02 10:26:15;;;;;;;4.40;2.83;;;9.70;71.10;;;;;;1905586;74;21518;-48
2022/03/02 10:29:05;;;;;;;3.15;2.40;;;9.60;72.00;;;;;;1905797;75;21080;-48
2022/03/02 10:31:49;;;;;;;5.58;2.67;;;9.60;71.80;;;;;;1905750;75;21096;-47
2022/03/02 10:34:30;;;;;;;2.35;2.12;;;9.60;71.50;;;;;;1915036;74;21097;-48
2022/03/02 10:37:28;;;;;;;4.47;2.83;;;9.60;71.20;;;;;;1937637;74;21023;-48
2022/03/02 10:40:05;;;;;;;4.95;3.02;;;9.50;72.60;;;;;;1937527;74;21015;-48
2022/03/02 10:42:34;;;;;;;4.92;3.00;;;9.50;72.70;;;;;;1937120;74;21023;-48
2022/03/02 10:45:14;;;;;;;3.58;2.00;;;9.60;73.20;;;;;;1936504;74;21473;-47
2022/03/02 10:48:19;;;;;;;5.95;1.90;;;9.60;72.00;;;;;;1937361;74;21051;-47
2022/03/02 10:50:52;;;;;;;6.45;2.20;;;9.60;71.00;;;;;;1937243;73;21023;-47
2022/03/02 10:53:22;;;;;;;3.12;2.37;;;9.60;72.00;;;;;;1937338;74;21109;-53
2022/03/02 10:55:51;;;;;;;7.37;2.55;;;9.60;71.00;;;;;;1937764;73;21079;-49
2022/03/02 10:58:22;;;;;;;6.87;3.08;;;9.60;71.20;;;;;;1950797;73;21039;-50
2022/03/02 11:00:52;;;;;;;5.25;2.10;;;9.60;71.00;;;;;;1950818;73;20987;-47
2022/03/02 11:03:22;;;;;;;2.58;1.77;;;9.60;70.80;;;;;;1950509;73;21002;-48
2022/03/02 11:05:52;;;;;;;2.87;1.42;;;9.60;70.50;;;;;;1950563;73;21022;-47
2022/03/02 11:08:24;;;;;;;4.75;3.30;;;9.60;70.20;;;;;;1950708;73;20994;-49
2022/03/02 11:10:54;;;;;;;15.18;7.78;;;9.60;71.50;;;;;;1950556;73;21070;-49
2022/03/02 11:13:24;;;;;;;5.65;2.70;;;9.60;72.50;;;;;;1950622;73;21082;-48
2022/03/02 11:15:58;;;;;;;6.30;2.27;;;9.60;72.20;;;;;;1950741;73;21062;-46
2022/03/02 11:18:36;;;;;;;3.60;2.35;;;9.60;71.60;;;;;;1950500;73;21014;-56
2022/03/02 11:21:10;;;;;;;7.12;2.10;;;9.60;72.10;;;;;;1950757;73;21015;-49
2022/03/02 11:23:45;;;;;;;5.47;2.72;;;9.60;71.70;;;;;;1950849;73;21152;-47
2022/03/02 11:26:16;;;;;;;4.50;2.77;;;9.60;71.60;;;;;;1950966;73;21585;-54
2022/03/02 11:28:48;;;;;;;5.10;3.20;;;9.60;71.60;;;;;;1950833;73;21047;-56
2022/03/02 11:31:30;;;;;;;7.20;2.62;;;9.50;72.60;;;;;;1951364;73;21077;-56
2022/03/02 11:34:19;;;;;;;4.80;2.33;;;9.50;72.70;;;;;;1946369;73;21445;-55
2022/03/02 11:36:51;;;;;;;8.65;2.83;;;9.50;72.40;;;;;;1951508;73;20991;-55
2022/03/02 11:39:23;;;;;;;11.38;3.22;;;9.60;72.60;;;;;;1951432;73;21149;-55
2022/03/02 11:42:04;;;;;;;4.67;3.05;;;9.50;73.00;;;;;;1951394;73;21084;-55
2022/03/02 11:44:36;;;;;;;8.23;4.35;;;9.50;72.90;;;;;;1951469;73;21139;-55
2022/03/02 11:47:07;;;;;;;4.62;3.55;;;9.50;73.50;;;;;;1951488;73;21441;-55
2022/03/02 11:49:51;;;;;;;4.28;3.52;;;9.50;73.40;;;;;;1951253;73;21457;-55
2022/03/02 11:52:24;;;;;;;7.50;3.62;;;9.50;73.30;;;;;;1951314;73;21011;-55
2022/03/02 11:54:58;;;;;;;3.47;2.72;;;9.50;73.20;;;;;;1950863;73;21042;-55
2022/03/02 11:57:30;;;;;;;6.28;3.25;;;9.50;72.90;;;;;;1944372;73;21059;-55
2022/03/02 12:00:12;;;;;;;7.70;3.50;;;9.50;73.40;;;;;;1936132;74;21019;-55
2022/03/02 12:02:49;;;;;;;10.40;4.08;;;9.50;73.50;;;;;;1936154;74;21394;-55
2022/03/02 12:05:20;;;;;;;9.33;4.83;;;9.50;73.40;;;;;;1936027;74;21128;-55
2022/03/02 12:07:54;;;;;;;7.10;4.03;;;9.50;74.00;;;;;;1936078;74;21061;-56
2022/03/02 12:10:29;;;;;;;4.90;3.17;;;9.50;74.00;;;;;;1935182;73;21512;-56
2022/03/02 12:12:59;;;;;;;7.33;3.45;;;9.50;73.60;;;;;;1935842;73;21015;-55
2022/03/02 12:15:47;;;;;;;6.78;4.90;;;9.50;73.20;;;;;;1935846;74;21019;-55
2022/03/02 12:18:19;;;;;;;6.58;3.62;;;9.50;73.80;;;;;;1935876;73;21039;-55
2022/03/02 12:20:50;;;;;;;7.58;4.72;;;9.50;74.10;;;;;;1935873;74;20992;-55
2022/03/02 12:23:27;;;;;;;8.98;4.53;;;9.50;73.90;;;;;;1936026;73;21449;-55
2022/03/02 12:25:58;;;;;;;6.72;4.40;;;9.60;73.90;;;;;;1935874;74;21019;-55
2022/03/02 12:28:27;;;;;;;6.67;4.30;;;9.60;73.70;;;;;;1935981;74;21473;-55
2022/03/02 12:30:57;;;;;;;7.42;4.58;;;9.50;73.90;;;;;;1935878;73;21446;-55
2022/03/02 12:33:26;;;;;;;18.62;10.80;;;9.50;74.20;;;;;;1935788;74;21011;-55
2022/03/02 12:35:56;;;;;;;4.72;2.83;;;9.60;74.30;;;;;;1936079;74;21019;-55
2022/03/02 12:38:25;;;;;;;6.78;4.47;;;9.60;74.50;;;;;;1936025;74;21019;-55
2022/03/02 12:40:56;;;;;;;9.08;5.58;;;9.60;74.80;;;;;;1935892;74;21074;-55
2022/03/02 12:43:27;;;;;;;3.35;2.45;;;9.60;74.10;;;;;;1935917;74;21023;-55
2022/03/02 12:45:58;;;;;;;5.17;3.35;;;9.60;72.30;;;;;;1935880;74;21426;-55
2022/03/02 12:48:27;;;;;;;6.70;3.55;;;9.50;73.10;;;;;;1935954;74;21025;-55
2022/03/02 12:50:57;;;;;;;6.33;4.20;;;9.50;73.80;;;;;;1935856;74;21012;-55
2022/03/02 12:53:27;;;;;;;7.17;2.85;;;9.50;73.30;;;;;;1935803;73;21027;-55
2022/03/02 12:55:56;;;;;;;9.85;5.37;;;9.50;73.20;;;;;;1935833;74;20999;-55
2022/03/02 12:58:25;;;;;;;8.45;4.92;;;9.60;73.50;;;;;;1935786;74;21054;-55
2022/03/02 13:00:55;;;;;;;6.28;3.98;;;9.50;73.30;;;;;;1935846;74;21097;-55
2022/03/02 13:03:32;;;;;;;10.88;4.35;;;9.50;73.60;;;;;;1936043;74;21536;-55
2022/03/02 13:06:03;;;;;;;9.88;5.35;;;9.50;73.50;;;;;;1935841;74;21019;-55
2022/03/02 13:08:54;;;;;;;8.90;4.50;;;9.50;73.80;;;;;;1936016;74;21089;-56
2022/03/02 13:11:33;;;;;;;5.35;3.40;;;9.50;74.20;;;;;;1935528;74;21023;-55
2022/03/02 13:14:03;;;;;;;12.68;6.90;;;9.50;73.80;;;;;;1935968;74;21089;-55
2022/03/02 13:16:39;;;;;;;8.60;4.53;;;9.60;74.20;;;;;;1935821;74;21081;-56